TimeCST,TemperatureF,Dew PointF,Humidity,Sea Level PressureIn,VisibilityMPH,Wind Direction,Wind SpeedMPH,Gust SpeedMPH,PrecipitationIn,Events,Conditions,WindDirDegrees,DateUTC
12:55 AM,24.1,19.4,82,30.28,10.0,ENE,5.8,-,N/A,,Clear,60,2013-01-22 06:55:00
1:55 AM,26.4,19.2,74,30.27,10.0,East,3.5,-,N/A,,Clear,80,2013-01-22 07:55:00
2:55 AM,25.9,19.4,76,30.27,10.0,Calm,Calm,-,N/A,,Clear,0,2013-01-22 08:55:00
3:55 AM,24.6,18.7,78,30.27,10.0,Calm,Calm,-,N/A,,Clear,0,2013-01-22 09:55:00
4:55 AM,21.9,17.2,82,30.27,10.0,Calm,Calm,-,N/A,,Clear,0,2013-01-22 10:55:00
5:55 AM,22.1,16.9,80,30.28,10.0,Calm,Calm,-,N/A,,Clear,0,2013-01-22 11:55:00
6:55 AM,23.2,18.0,80,30.28,10.0,SSE,4.6,-,N/A,,Clear,160,2013-01-22 12:55:00
7:55 AM,21.6,16.9,82,30.29,10.0,Calm,Calm,-,N/A,,Clear,0,2013-01-22 13:55:00
8:55 AM,27.3,21.6,79,30.28,10.0,SSE,3.5,-,N/A,,Clear,150,2013-01-22 14:55:00
9:55 AM,34.9,23.4,63,30.27,10.0,SSE,9.2,-,N/A,,Clear,160,2013-01-22 15:55:00
10:55 AM,43.9,24.6,47,30.27,10.0,South,11.5,-,N/A,,Clear,190,2013-01-22 16:55:00
11:55 AM,51.3,27.3,40,30.25,10.0,South,9.2,-,N/A,,Clear,170,2013-01-22 17:55:00
12:55 PM,55.6,29.1,36,30.20,10.0,South,15.0,-,N/A,,Clear,180,2013-01-22 18:55:00
1:55 PM,59.5,32.2,36,30.15,10.0,South,13.8,-,N/A,,Clear,190,2013-01-22 19:55:00
2:55 PM,61.5,34.2,36,30.13,10.0,SSW,11.5,-,N/A,,Clear,200,2013-01-22 20:55:00
3:55 PM,62.2,35.2,37,30.13,10.0,South,13.8,-,N/A,,Clear,180,2013-01-22 21:55:00
4:55 PM,61.9,36.9,39,30.14,10.0,SSE,9.2,-,N/A,,Clear,150,2013-01-22 22:55:00
5:55 PM,54.9,38.3,54,30.14,10.0,SSE,8.1,-,N/A,,Clear,150,2013-01-22 23:55:00
6:55 PM,45.3,35.6,69,30.16,10.0,SE,8.1,-,N/A,,Clear,130,2013-01-23 00:55:00
7:55 PM,42.6,35.8,77,30.17,10.0,East,6.9,-,N/A,,Clear,100,2013-01-23 01:55:00
8:55 PM,40.8,36.1,83,30.17,10.0,East,9.2,-,N/A,,Clear,100,2013-01-23 02:55:00
9:55 PM,39.6,35.8,86,30.18,10.0,ENE,6.9,-,N/A,,Clear,70,2013-01-23 03:55:00
10:55 PM,39.9,36.3,87,30.18,10.0,East,4.6,-,N/A,,Clear,90,2013-01-23 04:55:00
11:55 PM,38.1,35.8,91,30.18,10.0,NE,6.9,-,N/A,,Clear,50,2013-01-23 05:55:00